sensor_id;sensor_type;location;lat;lon;timestamp;P1;durP1;ratioP1;P2;durP2;ratioP2
50225;SDS011;36113;50.742;6.432;2022-08-04T00:00:35;3.90;;;1.33;;
50225;SDS011;36113;50.742;6.432;2022-08-04T00:03:15;5.68;;;1.80;;
50225;SDS011;36113;50.742;6.432;2022-08-04T00:08:43;2.95;;;1.30;;
50225;SDS011;36113;50.742;6.432;2022-08-04T00:11:13;4.15;;;1.40;;
50225;SDS011;36113;50.742;6.432;2022-08-04T00:13:46;3.75;;;1.50;;
50225;SDS011;36113;50.742;6.432;2022-08-04T00:16:16;2.47;;;1.33;;
50225;SDS011;36113;50.742;6.432;2022-08-04T00:18:47;10.13;;;1.50;;
50225;SDS011;36113;50.742;6.432;2022-08-04T00:21:18;3.30;;;1.30;;
50225;SDS011;36113;50.742;6.432;2022-08-04T00:23:46;5.05;;;1.30;;
50225;SDS011;36113;50.742;6.432;2022-08-04T00:26:14;1.42;;;0.90;;
50225;SDS011;36113;50.742;6.432;2022-08-04T00:28:40;3.15;;;1.23;;
50225;SDS011;36113;50.742;6.432;2022-08-04T00:31:08;1.30;;;1.20;;
50225;SDS011;36113;50.742;6.432;2022-08-04T00:33:35;5.88;;;1.20;;
50225;SDS011;36113;50.742;6.432;2022-08-04T00:36:02;6.90;;;1.55;;
50225;SDS011;36113;50.742;6.432;2022-08-04T00:38:28;3.90;;;1.45;;
50225;SDS011;36113;50.742;6.432;2022-08-04T00:40:58;1.70;;;1.38;;
50225;SDS011;36113;50.742;6.432;2022-08-04T00:43:30;4.45;;;1.40;;
50225;SDS011;36113;50.742;6.432;2022-08-04T00:48:55;4.80;;;1.40;;
50225;SDS011;36113;50.742;6.432;2022-08-04T00:51:47;7.60;;;1.58;;
50225;SDS011;36113;50.742;6.432;2022-08-04T00:54:33;3.47;;;1.50;;
50225;SDS011;36113;50.742;6.432;2022-08-04T01:02:36;4.68;;;1.70;;
50225;SDS011;36113;50.742;6.432;2022-08-04T01:05:17;3.03;;;1.63;;
50225;SDS011;36113;50.742;6.432;2022-08-04T01:10:23;5.07;;;1.65;;
50225;SDS011;36113;50.742;6.432;2022-08-04T01:18:12;2.80;;;1.10;;
50225;SDS011;36113;50.742;6.432;2022-08-04T01:34:33;1.83;;;1.40;;
50225;SDS011;36113;50.742;6.432;2022-08-04T01:40:03;2.20;;;1.40;;
50225;SDS011;36113;50.742;6.432;2022-08-04T01:42:32;3.33;;;1.70;;
50225;SDS011;36113;50.742;6.432;2022-08-04T01:44:59;2.72;;;1.40;;
50225;SDS011;36113;50.742;6.432;2022-08-04T01:47:27;4.75;;;1.40;;
50225;SDS011;36113;50.742;6.432;2022-08-04T01:49:57;2.72;;;1.50;;
50225;SDS011;36113;50.742;6.432;2022-08-04T01:52:28;1.73;;;1.40;;
50225;SDS011;36113;50.742;6.432;2022-08-04T01:54:56;2.67;;;1.63;;
50225;SDS011;36113;50.742;6.432;2022-08-04T01:57:21;4.23;;;2.03;;
50225;SDS011;36113;50.742;6.432;2022-08-04T01:59:47;3.40;;;1.25;;
50225;SDS011;36113;50.742;6.432;2022-08-04T02:02:16;3.00;;;1.35;;
50225;SDS011;36113;50.742;6.432;2022-08-04T02:04:41;1.60;;;1.50;;
50225;SDS011;36113;50.742;6.432;2022-08-04T02:07:18;3.07;;;1.37;;
50225;SDS011;36113;50.742;6.432;2022-08-04T02:12:48;2.80;;;1.67;;
50225;SDS011;36113;50.742;6.432;2022-08-04T02:18:20;2.95;;;1.70;;
50225;SDS011;36113;50.742;6.432;2022-08-04T02:20:50;6.18;;;2.08;;
50225;SDS011;36113;50.742;6.432;2022-08-04T02:23:34;4.18;;;1.67;;
50225;SDS011;36113;50.742;6.432;2022-08-04T02:26:02;4.97;;;1.77;;
50225;SDS011;36113;50.742;6.432;2022-08-04T02:33:55;2.53;;;1.75;;
50225;SDS011;36113;50.742;6.432;2022-08-04T02:36:38;7.07;;;2.08;;
50225;SDS011;36113;50.742;6.432;2022-08-04T02:39:09;3.63;;;2.10;;
50225;SDS011;36113;50.742;6.432;2022-08-04T02:41:36;2.22;;;2.00;;
50225;SDS011;36113;50.742;6.432;2022-08-04T02:44:04;2.63;;;2.22;;
50225;SDS011;36113;50.742;6.432;2022-08-04T02:46:35;6.00;;;2.28;;
50225;SDS011;36113;50.742;6.432;2022-08-04T02:49:02;3.78;;;1.92;;
50225;SDS011;36113;50.742;6.432;2022-08-04T02:51:36;4.63;;;1.67;;
50225;SDS011;36113;50.742;6.432;2022-08-04T02:54:05;3.45;;;2.08;;
50225;SDS011;36113;50.742;6.432;2022-08-04T02:56:32;3.10;;;1.75;;
50225;SDS011;36113;50.742;6.432;2022-08-04T02:59:09;2.80;;;2.17;;
50225;SDS011;36113;50.742;6.432;2022-08-04T03:01:36;4.05;;;2.08;;
50225;SDS011;36113;50.742;6.432;2022-08-04T03:06:42;3.13;;;1.90;;
50225;SDS011;36113;50.742;6.432;2022-08-04T03:12:33;1.88;;;1.77;;
50225;SDS011;36113;50.742;6.432;2022-08-04T03:27:40;2.45;;;2.15;;
50225;SDS011;36113;50.742;6.432;2022-08-04T03:35:29;4.03;;;1.63;;
50225;SDS011;36113;50.742;6.432;2022-08-04T03:38:41;4.88;;;1.52;;
50225;SDS011;36113;50.742;6.432;2022-08-04T03:52:05;2.65;;;1.40;;
50225;SDS011;36113;50.742;6.432;2022-08-04T04:04:07;1.65;;;1.40;;
50225;SDS011;36113;50.742;6.432;2022-08-04T04:12:33;1.70;;;1.40;;
50225;SDS011;36113;50.742;6.432;2022-08-04T04:20:50;2.22;;;1.88;;
50225;SDS011;36113;50.742;6.432;2022-08-04T04:45:23;4.30;;;1.45;;
50225;SDS011;36113;50.742;6.432;2022-08-04T04:56:32;1.80;;;1.70;;
50225;SDS011;36113;50.742;6.432;2022-08-04T04:59:10;3.10;;;1.48;;
50225;SDS011;36113;50.742;6.432;2022-08-04T05:04:31;1.90;;;1.42;;
50225;SDS011;36113;50.742;6.432;2022-08-04T05:12:33;2.85;;;1.25;;
50225;SDS011;36113;50.742;6.432;2022-08-04T05:15:06;7.00;;;1.60;;
50225;SDS011;36113;50.742;6.432;2022-08-04T05:17:35;1.60;;;1.50;;
50225;SDS011;36113;50.742;6.432;2022-08-04T05:22:51;2.30;;;1.42;;
50225;SDS011;36113;50.742;6.432;2022-08-04T05:25:29;2.53;;;1.33;;
50225;SDS011;36113;50.742;6.432;2022-08-04T05:27:59;1.50;;;1.40;;
50225;SDS011;36113;50.742;6.432;2022-08-04T05:30:29;1.95;;;1.55;;
50225;SDS011;36113;50.742;6.432;2022-08-04T05:33:00;4.75;;;1.60;;
50225;SDS011;36113;50.742;6.432;2022-08-04T05:35:35;5.38;;;1.70;;
50225;SDS011;36113;50.742;6.432;2022-08-04T05:38:13;1.60;;;1.50;;
50225;SDS011;36113;50.742;6.432;2022-08-04T05:40:41;2.72;;;1.73;;
50225;SDS011;36113;50.742;6.432;2022-08-04T05:43:08;2.90;;;1.83;;
50225;SDS011;36113;50.742;6.432;2022-08-04T05:45:34;2.65;;;1.67;;
50225;SDS011;36113;50.742;6.432;2022-08-04T05:48:02;2.03;;;1.30;;
50225;SDS011;36113;50.742;6.432;2022-08-04T05:50:31;2.35;;;1.55;;
50225;SDS011;36113;50.742;6.432;2022-08-04T05:52:57;2.40;;;1.60;;
50225;SDS011;36113;50.742;6.432;2022-08-04T05:55:25;3.08;;;1.67;;
50225;SDS011;36113;50.742;6.432;2022-08-04T05:57:51;2.58;;;1.63;;
50225;SDS011;36113;50.742;6.432;2022-08-04T06:00:18;1.33;;;1.25;;
50225;SDS011;36113;50.742;6.432;2022-08-04T06:02:45;9.15;;;1.48;;
50225;SDS011;36113;50.742;6.432;2022-08-04T06:05:12;1.25;;;1.25;;
50225;SDS011;36113;50.742;6.432;2022-08-04T06:07:39;1.90;;;1.45;;
50225;SDS011;36113;50.742;6.432;2022-08-04T06:10:05;2.35;;;1.30;;
50225;SDS011;36113;50.742;6.432;2022-08-04T06:12:35;1.70;;;1.60;;
50225;SDS011;36113;50.742;6.432;2022-08-04T06:15:04;1.73;;;1.60;;
50225;SDS011;36113;50.742;6.432;2022-08-04T06:17:35;1.70;;;1.60;;
50225;SDS011;36113;50.742;6.432;2022-08-04T06:20:03;1.63;;;1.52;;
50225;SDS011;36113;50.742;6.432;2022-08-04T06:22:31;1.50;;;1.40;;
50225;SDS011;36113;50.742;6.432;2022-08-04T06:24:58;3.08;;;1.40;;
50225;SDS011;36113;50.742;6.432;2022-08-04T06:27:27;1.17;;;1.17;;
50225;SDS011;36113;50.742;6.432;2022-08-04T06:29:54;1.50;;;1.50;;
50225;SDS011;36113;50.742;6.432;2022-08-04T06:32:22;1.58;;;1.48;;
50225;SDS011;36113;50.742;6.432;2022-08-04T06:34:59;3.60;;;1.23;;
50225;SDS011;36113;50.742;6.432;2022-08-04T06:37:25;1.48;;;1.38;;
50225;SDS011;36113;50.742;6.432;2022-08-04T06:39:52;4.30;;;1.55;;
50225;SDS011;36113;50.742;6.432;2022-08-04T06:42:20;1.23;;;1.20;;
50225;SDS011;36113;50.742;6.432;2022-08-04T06:44:48;1.17;;;1.17;;
50225;SDS011;36113;50.742;6.432;2022-08-04T06:47:18;2.13;;;1.40;;
50225;SDS011;36113;50.742;6.432;2022-08-04T06:49:45;6.13;;;1.65;;
50225;SDS011;36113;50.742;6.432;2022-08-04T06:52:14;1.50;;;1.40;;
50225;SDS011;36113;50.742;6.432;2022-08-04T06:54:51;1.33;;;1.30;;
50225;SDS011;36113;50.742;6.432;2022-08-04T06:57:19;2.45;;;1.40;;
50225;SDS011;36113;50.742;6.432;2022-08-04T06:59:48;0.90;;;0.90;;
50225;SDS011;36113;50.742;6.432;2022-08-04T07:02:19;2.10;;;1.20;;
50225;SDS011;36113;50.742;6.432;2022-08-04T07:04:48;3.58;;;1.25;;
50225;SDS011;36113;50.742;6.432;2022-08-04T07:07:13;3.80;;;1.70;;
50225;SDS011;36113;50.742;6.432;2022-08-04T07:09:40;2.03;;;1.20;;
50225;SDS011;36113;50.742;6.432;2022-08-04T07:12:06;2.05;;;1.38;;
50225;SDS011;36113;50.742;6.432;2022-08-04T07:14:33;1.38;;;1.27;;
50225;SDS011;36113;50.742;6.432;2022-08-04T07:17:02;1.73;;;1.35;;
50225;SDS011;36113;50.742;6.432;2022-08-04T07:19:29;3.28;;;1.40;;
50225;SDS011;36113;50.742;6.432;2022-08-04T07:22:02;2.88;;;1.02;;
50225;SDS011;36113;50.742;6.432;2022-08-04T07:24:32;4.10;;;1.15;;
50225;SDS011;36113;50.742;6.432;2022-08-04T07:26:59;2.30;;;1.10;;
50225;SDS011;36113;50.742;6.432;2022-08-04T07:29:25;2.17;;;1.13;;
50225;SDS011;36113;50.742;6.432;2022-08-04T07:31:51;1.30;;;1.20;;
50225;SDS011;36113;50.742;6.432;2022-08-04T07:34:18;3.10;;;0.95;;
50225;SDS011;36113;50.742;6.432;2022-08-04T07:36:44;1.90;;;1.30;;
50225;SDS011;36113;50.742;6.432;2022-08-04T07:39:10;3.60;;;1.23;;
50225;SDS011;36113;50.742;6.432;2022-08-04T07:41:35;1.87;;;1.30;;
50225;SDS011;36113;50.742;6.432;2022-08-04T07:44:02;3.70;;;1.00;;
50225;SDS011;36113;50.742;6.432;2022-08-04T07:46:28;0.90;;;0.90;;
50225;SDS011;36113;50.742;6.432;2022-08-04T07:48:53;1.48;;;1.23;;
50225;SDS011;36113;50.742;6.432;2022-08-04T07:51:19;1.40;;;1.30;;
50225;SDS011;36113;50.742;6.432;2022-08-04T07:53:45;1.85;;;0.85;;
50225;SDS011;36113;50.742;6.432;2022-08-04T07:58:39;2.63;;;1.05;;
50225;SDS011;36113;50.742;6.432;2022-08-04T08:01:04;4.32;;;1.05;;
50225;SDS011;36113;50.742;6.432;2022-08-04T08:03:29;1.05;;;0.95;;
50225;SDS011;36113;50.742;6.432;2022-08-04T08:05:55;1.55;;;0.90;;
50225;SDS011;36113;50.742;6.432;2022-08-04T08:08:21;3.22;;;0.98;;
50225;SDS011;36113;50.742;6.432;2022-08-04T08:10:47;2.72;;;0.88;;
50225;SDS011;36113;50.742;6.432;2022-08-04T08:13:13;4.50;;;1.17;;
50225;SDS011;36113;50.742;6.432;2022-08-04T08:15:40;1.30;;;1.10;;
50225;SDS011;36113;50.742;6.432;2022-08-04T08:18:09;1.02;;;0.93;;
50225;SDS011;36113;50.742;6.432;2022-08-04T08:23:00;2.17;;;1.10;;
50225;SDS011;36113;50.742;6.432;2022-08-04T08:25:26;1.00;;;0.90;;
50225;SDS011;36113;50.742;6.432;2022-08-04T08:27:54;1.60;;;1.00;;
50225;SDS011;36113;50.742;6.432;2022-08-04T08:32:45;3.93;;;1.10;;
50225;SDS011;36113;50.742;6.432;2022-08-04T08:37:55;1.15;;;0.88;;
50225;SDS011;36113;50.742;6.432;2022-08-04T08:43:15;1.15;;;0.85;;
50225;SDS011;36113;50.742;6.432;2022-08-04T08:51:25;0.80;;;0.80;;
50225;SDS011;36113;50.742;6.432;2022-08-04T08:59:38;0.82;;;0.82;;
50225;SDS011;36113;50.742;6.432;2022-08-04T09:13:09;0.73;;;0.73;;
50225;SDS011;36113;50.742;6.432;2022-08-04T09:21:39;1.20;;;0.65;;
50225;SDS011;36113;50.742;6.432;2022-08-04T09:24:19;5.18;;;0.65;;
50225;SDS011;36113;50.742;6.432;2022-08-04T09:35:10;2.92;;;0.98;;
50225;SDS011;36113;50.742;6.432;2022-08-04T09:37:39;1.58;;;1.15;;
50225;SDS011;36113;50.742;6.432;2022-08-04T09:40:19;0.75;;;0.70;;
50225;SDS011;36113;50.742;6.432;2022-08-04T09:45:53;1.85;;;1.00;;
50225;SDS011;36113;50.742;6.432;2022-08-04T09:48:52;1.77;;;1.00;;
50225;SDS011;36113;50.742;6.432;2022-08-04T09:51:39;0.70;;;0.70;;
50225;SDS011;36113;50.742;6.432;2022-08-04T09:54:13;3.80;;;1.17;;
50225;SDS011;36113;50.742;6.432;2022-08-04T10:00:18;3.95;;;0.85;;
50225;SDS011;36113;50.742;6.432;2022-08-04T10:02:29;3.20;;;1.15;;
50225;SDS011;36113;50.742;6.432;2022-08-04T10:04:58;5.90;;;1.20;;
50225;SDS011;36113;50.742;6.432;2022-08-04T10:10:55;3.10;;;1.08;;
50225;SDS011;36113;50.742;6.432;2022-08-04T10:27:44;3.50;;;1.13;;
50225;SDS011;36113;50.742;6.432;2022-08-04T10:30:12;3.00;;;1.20;;
50225;SDS011;36113;50.742;6.432;2022-08-04T10:35:17;2.58;;;1.25;;
50225;SDS011;36113;50.742;6.432;2022-08-04T10:38:09;5.00;;;1.10;;
50225;SDS011;36113;50.742;6.432;2022-08-04T10:45:51;2.55;;;1.40;;
50225;SDS011;36113;50.742;6.432;2022-08-04T10:48:29;0.88;;;0.88;;
50225;SDS011;36113;50.742;6.432;2022-08-04T10:51:14;2.40;;;1.40;;
50225;SDS011;36113;50.742;6.432;2022-08-04T10:53:42;3.85;;;1.17;;
50225;SDS011;36113;50.742;6.432;2022-08-04T10:56:13;5.60;;;1.65;;
50225;SDS011;36113;50.742;6.432;2022-08-04T10:58:48;4.75;;;1.40;;
50225;SDS011;36113;50.742;6.432;2022-08-04T11:01:23;1.70;;;1.30;;
50225;SDS011;36113;50.742;6.432;2022-08-04T11:03:57;3.65;;;1.83;;
50225;SDS011;36113;50.742;6.432;2022-08-04T11:06:27;2.25;;;1.33;;
50225;SDS011;36113;50.742;6.432;2022-08-04T11:08:54;2.22;;;1.33;;
50225;SDS011;36113;50.742;6.432;2022-08-04T11:11:25;4.72;;;1.77;;
50225;SDS011;36113;50.742;6.432;2022-08-04T11:16:43;4.20;;;1.67;;
50225;SDS011;36113;50.742;6.432;2022-08-04T11:21:56;3.33;;;1.70;;
50225;SDS011;36113;50.742;6.432;2022-08-04T11:24:43;3.88;;;1.63;;
50225;SDS011;36113;50.742;6.432;2022-08-04T11:27:28;3.50;;;1.50;;
50225;SDS011;36113;50.742;6.432;2022-08-04T11:30:02;7.57;;;1.92;;
50225;SDS011;36113;50.742;6.432;2022-08-04T11:32:34;8.82;;;2.13;;
50225;SDS011;36113;50.742;6.432;2022-08-04T11:35:08;8.60;;;1.80;;
50225;SDS011;36113;50.742;6.432;2022-08-04T11:37:49;6.22;;;1.98;;
50225;SDS011;36113;50.742;6.432;2022-08-04T11:40:35;6.15;;;2.10;;
50225;SDS011;36113;50.742;6.432;2022-08-04T11:43:05;3.33;;;1.83;;
50225;SDS011;36113;50.742;6.432;2022-08-04T11:45:41;4.57;;;2.10;;
50225;SDS011;36113;50.742;6.432;2022-08-04T11:48:15;7.05;;;1.90;;
50225;SDS011;36113;50.742;6.432;2022-08-04T11:53:19;4.70;;;2.03;;
50225;SDS011;36113;50.742;6.432;2022-08-04T11:55:49;4.28;;;1.58;;
50225;SDS011;36113;50.742;6.432;2022-08-04T11:58:16;2.50;;;1.48;;
50225;SDS011;36113;50.742;6.432;2022-08-04T12:03:25;9.93;;;2.28;;
50225;SDS011;36113;50.742;6.432;2022-08-04T12:17:37;2.67;;;1.55;;
50225;SDS011;36113;50.742;6.432;2022-08-04T12:20:24;3.55;;;1.83;;
50225;SDS011;36113;50.742;6.432;2022-08-04T12:22:53;4.70;;;2.00;;
50225;SDS011;36113;50.742;6.432;2022-08-04T12:25:22;4.07;;;1.50;;
50225;SDS011;36113;50.742;6.432;2022-08-04T12:28:14;7.53;;;2.03;;
50225;SDS011;36113;50.742;6.432;2022-08-04T12:30:46;3.08;;;1.88;;
50225;SDS011;36113;50.742;6.432;2022-08-04T12:33:19;4.40;;;1.90;;
50225;SDS011;36113;50.742;6.432;2022-08-04T12:35:57;4.55;;;1.90;;
50225;SDS011;36113;50.742;6.432;2022-08-04T12:38:31;3.60;;;1.85;;
50225;SDS011;36113;50.742;6.432;2022-08-04T12:40:59;3.88;;;1.63;;
50225;SDS011;36113;50.742;6.432;2022-08-04T12:46:05;7.45;;;1.98;;
50225;SDS011;36113;50.742;6.432;2022-08-04T12:48:34;3.00;;;1.80;;
50225;SDS011;36113;50.742;6.432;2022-08-04T12:51:01;2.72;;;1.92;;
50225;SDS011;36113;50.742;6.432;2022-08-04T12:53:29;2.65;;;1.50;;
50225;SDS011;36113;50.742;6.432;2022-08-04T12:55:58;6.70;;;1.83;;
50225;SDS011;36113;50.742;6.432;2022-08-04T12:58:26;8.80;;;1.95;;
50225;SDS011;36113;50.742;6.432;2022-08-04T13:00:58;3.88;;;1.83;;
50225;SDS011;36113;50.742;6.432;2022-08-04T13:03:29;4.85;;;1.73;;
50225;SDS011;36113;50.742;6.432;2022-08-04T13:06:02;4.85;;;1.70;;
50225;SDS011;36113;50.742;6.432;2022-08-04T13:08:30;8.45;;;2.00;;
50225;SDS011;36113;50.742;6.432;2022-08-04T13:11:02;3.58;;;2.08;;
50225;SDS011;36113;50.742;6.432;2022-08-04T13:13:29;5.28;;;2.20;;
50225;SDS011;36113;50.742;6.432;2022-08-04T13:16:02;2.20;;;1.75;;
50225;SDS011;36113;50.742;6.432;2022-08-04T13:18:30;4.13;;;1.95;;
50225;SDS011;36113;50.742;6.432;2022-08-04T13:23:44;5.57;;;1.65;;
50225;SDS011;36113;50.742;6.432;2022-08-04T13:26:13;3.10;;;1.70;;
50225;SDS011;36113;50.742;6.432;2022-08-04T13:28:40;9.38;;;1.95;;
50225;SDS011;36113;50.742;6.432;2022-08-04T13:31:13;2.50;;;1.90;;
50225;SDS011;36113;50.742;6.432;2022-08-04T13:33:41;4.22;;;1.70;;
50225;SDS011;36113;50.742;6.432;2022-08-04T13:36:08;5.75;;;2.13;;
50225;SDS011;36113;50.742;6.432;2022-08-04T13:38:38;2.50;;;1.52;;
50225;SDS011;36113;50.742;6.432;2022-08-04T13:41:10;1.67;;;1.58;;
50225;SDS011;36113;50.742;6.432;2022-08-04T13:46:07;6.78;;;1.85;;
50225;SDS011;36113;50.742;6.432;2022-08-04T13:48:37;5.55;;;2.35;;
50225;SDS011;36113;50.742;6.432;2022-08-04T13:51:06;2.65;;;1.55;;
50225;SDS011;36113;50.742;6.432;2022-08-04T13:53:34;4.03;;;1.80;;
50225;SDS011;36113;50.742;6.432;2022-08-04T13:56:02;7.53;;;2.03;;
50225;SDS011;36113;50.742;6.432;2022-08-04T13:58:30;5.43;;;2.00;;
50225;SDS011;36113;50.742;6.432;2022-08-04T14:00:59;5.00;;;2.05;;
50225;SDS011;36113;50.742;6.432;2022-08-04T14:06:14;5.43;;;1.90;;
50225;SDS011;36113;50.742;6.432;2022-08-04T14:08:49;2.72;;;1.75;;
50225;SDS011;36113;50.742;6.432;2022-08-04T14:11:18;3.17;;;1.80;;
50225;SDS011;36113;50.742;6.432;2022-08-04T14:13:46;8.38;;;1.90;;
50225;SDS011;36113;50.742;6.432;2022-08-04T14:16:13;5.05;;;2.08;;
50225;SDS011;36113;50.742;6.432;2022-08-04T14:18:43;5.70;;;2.15;;
50225;SDS011;36113;50.742;6.432;2022-08-04T14:23:40;6.78;;;1.60;;
50225;SDS011;36113;50.742;6.432;2022-08-04T14:26:54;4.68;;;1.70;;
50225;SDS011;36113;50.742;6.432;2022-08-04T14:29:18;3.17;;;1.73;;
50225;SDS011;36113;50.742;6.432;2022-08-04T14:31:48;7.40;;;1.95;;
50225;SDS011;36113;50.742;6.432;2022-08-04T14:34:24;3.28;;;1.80;;
50225;SDS011;36113;50.742;6.432;2022-08-04T14:36:50;5.03;;;1.88;;
50225;SDS011;36113;50.742;6.432;2022-08-04T14:39:17;7.10;;;1.90;;
50225;SDS011;36113;50.742;6.432;2022-08-04T14:42:00;6.95;;;2.20;;
50225;SDS011;36113;50.742;6.432;2022-08-04T14:44:25;6.25;;;1.67;;
50225;SDS011;36113;50.742;6.432;2022-08-04T14:46:51;8.03;;;2.60;;
50225;SDS011;36113;50.742;6.432;2022-08-04T14:49:19;6.45;;;2.20;;
50225;SDS011;36113;50.742;6.432;2022-08-04T14:51:52;6.07;;;2.28;;
50225;SDS011;36113;50.742;6.432;2022-08-04T14:54:33;8.23;;;2.22;;
50225;SDS011;36113;50.742;6.432;2022-08-04T14:57:05;8.77;;;2.72;;
50225;SDS011;36113;50.742;6.432;2022-08-04T14:59:45;8.80;;;2.10;;
50225;SDS011;36113;50.742;6.432;2022-08-04T15:02:12;7.88;;;2.20;;
50225;SDS011;36113;50.742;6.432;2022-08-04T15:04:39;4.82;;;2.10;;
50225;SDS011;36113;50.742;6.432;2022-08-04T15:07:06;4.03;;;1.83;;
50225;SDS011;36113;50.742;6.432;2022-08-04T15:09:32;5.75;;;1.70;;
50225;SDS011;36113;50.742;6.432;2022-08-04T15:11:57;6.95;;;1.55;;
50225;SDS011;36113;50.742;6.432;2022-08-04T15:14:24;9.88;;;2.47;;
50225;SDS011;36113;50.742;6.432;2022-08-04T15:16:50;4.93;;;2.10;;
50225;SDS011;36113;50.742;6.432;2022-08-04T15:19:15;7.72;;;1.92;;
50225;SDS011;36113;50.742;6.432;2022-08-04T15:21:41;8.20;;;2.33;;
50225;SDS011;36113;50.742;6.432;2022-08-04T15:24:06;2.77;;;1.93;;
50225;SDS011;36113;50.742;6.432;2022-08-04T15:26:43;5.95;;;2.22;;
50225;SDS011;36113;50.742;6.432;2022-08-04T15:29:14;8.07;;;2.30;;
50225;SDS011;36113;50.742;6.432;2022-08-04T15:31:41;7.85;;;2.05;;
50225;SDS011;36113;50.742;6.432;2022-08-04T15:34:08;9.70;;;2.78;;
50225;SDS011;36113;50.742;6.432;2022-08-04T15:36:37;7.43;;;2.70;;
50225;SDS011;36113;50.742;6.432;2022-08-04T15:41:46;5.17;;;1.70;;
50225;SDS011;36113;50.742;6.432;2022-08-04T15:49:19;2.80;;;1.65;;
50225;SDS011;36113;50.742;6.432;2022-08-04T15:52:01;10.18;;;2.83;;
50225;SDS011;36113;50.742;6.432;2022-08-04T15:54:31;9.18;;;2.25;;
50225;SDS011;36113;50.742;6.432;2022-08-04T15:56:57;8.50;;;2.63;;
50225;SDS011;36113;50.742;6.432;2022-08-04T16:07:56;7.15;;;2.42;;
50225;SDS011;36113;50.742;6.432;2022-08-04T16:12:54;10.75;;;2.60;;
50225;SDS011;36113;50.742;6.432;2022-08-04T16:18:06;10.18;;;2.58;;
50225;SDS011;36113;50.742;6.432;2022-08-04T16:20:33;10.02;;;2.97;;
50225;SDS011;36113;50.742;6.432;2022-08-04T16:23:02;6.40;;;2.35;;
50225;SDS011;36113;50.742;6.432;2022-08-04T16:25:41;7.75;;;2.72;;
50225;SDS011;36113;50.742;6.432;2022-08-04T16:28:34;6.28;;;2.35;;
50225;SDS011;36113;50.742;6.432;2022-08-04T16:31:03;7.15;;;2.30;;
50225;SDS011;36113;50.742;6.432;2022-08-04T16:33:30;8.80;;;2.80;;
50225;SDS011;36113;50.742;6.432;2022-08-04T16:35:56;4.68;;;2.30;;
50225;SDS011;36113;50.742;6.432;2022-08-04T16:38:22;8.07;;;2.53;;
50225;SDS011;36113;50.742;6.432;2022-08-04T16:43:21;5.95;;;2.65;;
50225;SDS011;36113;50.742;6.432;2022-08-04T16:48:26;10.85;;;3.00;;
50225;SDS011;36113;50.742;6.432;2022-08-04T16:51:06;10.20;;;3.17;;
50225;SDS011;36113;50.742;6.432;2022-08-04T16:56:02;6.72;;;2.63;;
50225;SDS011;36113;50.742;6.432;2022-08-04T16:58:29;8.50;;;2.90;;
50225;SDS011;36113;50.742;6.432;2022-08-04T17:00:57;6.38;;;2.40;;
50225;SDS011;36113;50.742;6.432;2022-08-04T17:03:31;4.65;;;2.97;;
50225;SDS011;36113;50.742;6.432;2022-08-04T17:08:32;7.73;;;2.80;;
50225;SDS011;36113;50.742;6.432;2022-08-04T17:10:59;10.02;;;2.60;;
50225;SDS011;36113;50.742;6.432;2022-08-04T17:13:29;8.35;;;2.60;;
50225;SDS011;36113;50.742;6.432;2022-08-04T17:16:00;11.43;;;2.90;;
50225;SDS011;36113;50.742;6.432;2022-08-04T17:18:29;7.75;;;3.35;;
50225;SDS011;36113;50.742;6.432;2022-08-04T17:20:59;9.05;;;6.07;;
50225;SDS011;36113;50.742;6.432;2022-08-04T17:25:59;10.95;;;3.35;;
50225;SDS011;36113;50.742;6.432;2022-08-04T17:28:25;5.18;;;2.63;;
50225;SDS011;36113;50.742;6.432;2022-08-04T17:30:50;8.00;;;2.97;;
50225;SDS011;36113;50.742;6.432;2022-08-04T17:33:18;11.30;;;3.10;;
50225;SDS011;36113;50.742;6.432;2022-08-04T17:35:44;17.00;;;3.03;;
50225;SDS011;36113;50.742;6.432;2022-08-04T17:38:10;5.22;;;3.10;;
50225;SDS011;36113;50.742;6.432;2022-08-04T17:40:51;7.50;;;3.07;;
50225;SDS011;36113;50.742;6.432;2022-08-04T17:43:39;9.88;;;3.28;;
50225;SDS011;36113;50.742;6.432;2022-08-04T17:51:53;8.07;;;2.75;;
50225;SDS011;36113;50.742;6.432;2022-08-04T17:56:54;9.50;;;3.40;;
50225;SDS011;36113;50.742;6.432;2022-08-04T18:02:05;9.27;;;2.75;;
50225;SDS011;36113;50.742;6.432;2022-08-04T18:07:03;7.25;;;2.58;;
50225;SDS011;36113;50.742;6.432;2022-08-04T18:09:39;8.13;;;2.85;;
50225;SDS011;36113;50.742;6.432;2022-08-04T18:12:07;9.18;;;2.60;;
50225;SDS011;36113;50.742;6.432;2022-08-04T18:14:41;12.55;;;2.90;;
50225;SDS011;36113;50.742;6.432;2022-08-04T18:17:09;6.97;;;2.63;;
50225;SDS011;36113;50.742;6.432;2022-08-04T18:19:35;6.90;;;3.05;;
50225;SDS011;36113;50.742;6.432;2022-08-04T18:22:04;7.03;;;3.88;;
50225;SDS011;36113;50.742;6.432;2022-08-04T18:24:31;4.50;;;2.80;;
50225;SDS011;36113;50.742;6.432;2022-08-04T18:26:58;7.88;;;3.67;;
50225;SDS011;36113;50.742;6.432;2022-08-04T18:29:24;14.52;;;3.45;;
50225;SDS011;36113;50.742;6.432;2022-08-04T18:31:49;15.40;;;3.97;;
50225;SDS011;36113;50.742;6.432;2022-08-04T18:34:14;9.97;;;3.30;;
50225;SDS011;36113;50.742;6.432;2022-08-04T18:36:40;9.67;;;3.43;;
50225;SDS011;36113;50.742;6.432;2022-08-04T18:39:08;8.07;;;3.22;;
50225;SDS011;36113;50.742;6.432;2022-08-04T18:41:34;11.82;;;3.60;;
50225;SDS011;36113;50.742;6.432;2022-08-04T18:44:01;3.70;;;3.17;;
50225;SDS011;36113;50.742;6.432;2022-08-04T18:46:26;14.85;;;3.97;;
50225;SDS011;36113;50.742;6.432;2022-08-04T18:48:51;11.13;;;3.67;;
50225;SDS011;36113;50.742;6.432;2022-08-04T18:51:17;7.93;;;3.17;;
50225;SDS011;36113;50.742;6.432;2022-08-04T18:53:43;8.90;;;3.70;;
50225;SDS011;36113;50.742;6.432;2022-08-04T18:56:09;7.45;;;3.85;;
50225;SDS011;36113;50.742;6.432;2022-08-04T18:58:35;10.15;;;3.92;;
50225;SDS011;36113;50.742;6.432;2022-08-04T19:01:00;7.17;;;3.30;;
50225;SDS011;36113;50.742;6.432;2022-08-04T19:03:25;8.60;;;3.70;;
50225;SDS011;36113;50.742;6.432;2022-08-04T19:05:51;9.33;;;3.60;;
50225;SDS011;36113;50.742;6.432;2022-08-04T19:08:16;4.80;;;3.38;;
50225;SDS011;36113;50.742;6.432;2022-08-04T19:10:42;7.80;;;3.42;;
50225;SDS011;36113;50.742;6.432;2022-08-04T19:13:07;7.20;;;2.73;;
50225;SDS011;36113;50.742;6.432;2022-08-04T19:15:33;6.50;;;3.40;;
50225;SDS011;36113;50.742;6.432;2022-08-04T19:17:58;5.03;;;3.60;;
50225;SDS011;36113;50.742;6.432;2022-08-04T19:20:24;4.33;;;3.30;;
50225;SDS011;36113;50.742;6.432;2022-08-04T19:25:15;8.25;;;3.05;;
50225;SDS011;36113;50.742;6.432;2022-08-04T19:27:40;6.13;;;3.63;;
50225;SDS011;36113;50.742;6.432;2022-08-04T19:30:06;6.17;;;3.30;;
50225;SDS011;36113;50.742;6.432;2022-08-04T19:32:33;7.95;;;3.33;;
50225;SDS011;36113;50.742;6.432;2022-08-04T19:34:58;6.13;;;2.93;;
50225;SDS011;36113;50.742;6.432;2022-08-04T19:37:23;9.53;;;4.10;;
50225;SDS011;36113;50.742;6.432;2022-08-04T19:39:49;10.13;;;3.30;;
50225;SDS011;36113;50.742;6.432;2022-08-04T19:42:15;8.23;;;3.05;;
50225;SDS011;36113;50.742;6.432;2022-08-04T19:44:40;4.17;;;3.33;;
50225;SDS011;36113;50.742;6.432;2022-08-04T19:47:06;4.27;;;2.97;;
50225;SDS011;36113;50.742;6.432;2022-08-04T19:49:31;4.80;;;2.70;;
50225;SDS011;36113;50.742;6.432;2022-08-04T19:51:56;16.40;;;3.77;;
50225;SDS011;36113;50.742;6.432;2022-08-04T19:54:22;9.70;;;3.37;;
50225;SDS011;36113;50.742;6.432;2022-08-04T19:56:47;6.10;;;3.10;;
50225;SDS011;36113;50.742;6.432;2022-08-04T19:59:12;11.47;;;3.30;;
50225;SDS011;36113;50.742;6.432;2022-08-04T20:01:38;4.77;;;3.23;;
50225;SDS011;36113;50.742;6.432;2022-08-04T20:04:04;12.45;;;3.88;;
50225;SDS011;36113;50.742;6.432;2022-08-04T20:06:29;10.97;;;3.60;;
50225;SDS011;36113;50.742;6.432;2022-08-04T20:08:54;11.37;;;3.70;;
50225;SDS011;36113;50.742;6.432;2022-08-04T20:11:20;7.70;;;3.83;;
50225;SDS011;36113;50.742;6.432;2022-08-04T20:13:46;6.63;;;2.73;;
50225;SDS011;36113;50.742;6.432;2022-08-04T20:16:11;7.20;;;2.92;;